createdAt,value
2018-09-03T00:00:24.798Z,40.17
2018-09-03T00:03:01.194Z,31.50
2018-09-03T00:05:31.558Z,38.63
2018-09-03T00:08:01.585Z,32.80
2018-09-03T00:13:06.470Z,37.10
2018-09-03T00:18:14.310Z,38.85
2018-09-03T00:20:46.470Z,31.23
2018-09-03T00:23:15.722Z,29.87
2018-09-03T00:28:20.505Z,35.43
2018-09-03T00:30:49.946Z,35.33
2018-09-03T00:41:58.484Z,35.85
2018-09-03T00:47:24.254Z,37.43
2018-09-03T00:49:56.485Z,30.97
2018-09-03T00:52:25.551Z,30.23
2018-09-03T00:54:56.675Z,27.57
2018-09-03T01:00:01.639Z,34.97
2018-09-03T01:05:06.505Z,37.47
2018-09-03T01:07:36.624Z,29.07
2018-09-03T01:10:05.707Z,33.90
2018-09-03T01:12:34.785Z,30.60
2018-09-03T01:15:03.852Z,28.60
2018-09-03T01:17:33.945Z,26.90
2018-09-03T01:20:03.009Z,27.80
2018-09-03T01:22:32.079Z,32.00
2018-09-03T01:25:01.153Z,29.13
2018-09-03T01:27:30.250Z,28.20
2018-09-03T01:30:11.011Z,34.87
2018-09-03T01:35:15.943Z,35.67
2018-09-03T01:40:20.791Z,31.43
2018-09-03T01:45:25.648Z,34.00
2018-09-03T01:50:30.542Z,31.27
2018-09-03T01:52:59.634Z,25.93
2018-09-03T01:55:28.708Z,25.60
2018-09-03T02:00:33.562Z,35.30
2018-09-03T02:03:02.642Z,31.17
2018-09-03T02:05:31.731Z,28.87
2018-09-03T02:08:00.849Z,26.53
2018-09-03T02:14:08.765Z,32.25
2018-09-03T02:16:37.817Z,35.60
2018-09-03T02:19:07.848Z,32.63
2018-09-03T02:21:37.921Z,29.93
2018-09-03T02:24:06.993Z,29.37
2018-09-03T02:26:37.072Z,29.50
2018-09-03T02:29:06.165Z,48.87
2018-09-03T02:31:35.385Z,46.23
2018-09-03T02:39:15.908Z,68.00
2018-09-03T02:41:44.979Z,62.70
2018-09-03T02:44:14.052Z,51.87
2018-09-03T02:46:44.113Z,83.90
2018-09-03T02:49:13.192Z,49.63
2018-09-03T02:56:53.741Z,115.33
2018-09-03T02:59:23.837Z,119.60
2018-09-03T03:01:52.939Z,110.57
2018-09-03T03:04:22.016Z,48.43
2018-09-03T03:06:52.049Z,79.57
2018-09-03T03:09:21.117Z,36.90
2018-09-03T03:11:50.196Z,44.83
2018-09-03T03:14:20.587Z,53.27
2018-09-03T03:19:25.343Z,81.90
2018-09-03T03:24:30.222Z,62.13
2018-09-03T03:27:00.340Z,39.70
2018-09-03T03:29:29.521Z,33.20
2018-09-03T03:37:11.046Z,48.63
2018-09-03T03:42:15.905Z,96.20
2018-09-03T03:55:08.063Z,77.70
2018-09-03T03:57:39.022Z,43.53
2018-09-03T04:00:08.135Z,41.27
2018-09-03T04:02:37.221Z,51.83
2018-09-03T04:05:06.305Z,40.67
2018-09-03T04:07:35.367Z,36.13
2018-09-03T04:10:04.441Z,54.67
2018-09-03T04:12:33.519Z,54.87
2018-09-03T04:17:38.299Z,72.13
2018-09-03T04:22:43.153Z,62.90
2018-09-03T04:25:12.287Z,52.47
2018-09-03T04:27:41.334Z,43.13
2018-09-03T04:32:46.097Z,64.80
2018-09-03T04:37:50.942Z,76.97
2018-09-03T04:40:20.071Z,47.80
2018-09-03T04:42:49.141Z,64.20
2018-09-03T04:45:18.210Z,69.50
2018-09-03T04:47:47.298Z,105.60
2018-09-03T04:50:16.369Z,58.45
2018-09-03T04:52:46.470Z,54.20
2018-09-03T04:55:15.553Z,45.37
2018-09-03T04:57:44.615Z,37.50
2018-09-03T05:00:13.710Z,40.87
2018-09-03T05:02:42.841Z,40.87
2018-09-03T05:05:12.341Z,42.70
2018-09-03T05:10:19.076Z,71.57
2018-09-03T05:15:23.921Z,103.67
2018-09-03T05:17:52.996Z,72.60
2018-09-03T05:20:22.073Z,53.10
2018-09-03T05:22:51.142Z,46.97
2018-09-03T05:25:20.230Z,50.57
2018-09-03T05:27:49.320Z,44.70
2018-09-03T05:30:18.400Z,70.25
2018-09-03T05:32:47.622Z,61.45
2018-09-03T05:40:29.168Z,50.63
2018-09-03T05:42:58.359Z,53.80
2018-09-03T05:45:28.258Z,39.57
2018-09-03T05:47:57.406Z,49.20
2018-09-03T05:50:26.662Z,35.53
2018-09-03T05:52:55.651Z,32.40
2018-09-03T05:55:24.742Z,44.73
2018-09-03T05:57:53.812Z,52.97
2018-09-03T06:00:22.865Z,34.00
2018-09-03T06:03:08.533Z,34.77
2018-09-03T06:05:39.429Z,28.40
2018-09-03T06:08:21.898Z,27.60
2018-09-03T06:10:51.600Z,25.60
2018-09-03T06:15:56.499Z,35.17
2018-09-03T06:18:25.890Z,28.30
2018-09-03T06:20:54.942Z,26.93
2018-09-03T06:23:24.036Z,23.90
2018-09-03T06:28:28.802Z,27.70
2018-09-03T06:30:58.330Z,27.30
2018-09-03T06:33:28.706Z,24.27
2018-09-03T06:38:33.891Z,26.17
2018-09-03T06:41:13.316Z,24.67
2018-09-03T06:43:42.787Z,22.90
2018-09-03T06:46:12.007Z,21.87
2018-09-03T06:48:41.301Z,21.37
2018-09-03T06:51:10.373Z,22.10
2018-09-03T06:53:39.649Z,21.07
2018-09-03T06:56:08.730Z,21.50
2018-09-03T06:58:37.805Z,20.57
2018-09-03T07:01:07.014Z,22.00
2018-09-03T07:03:36.092Z,22.30
2018-09-03T07:06:05.155Z,20.17
2018-09-03T07:08:34.234Z,23.07
2018-09-03T07:11:03.296Z,22.70
2018-09-03T07:13:32.368Z,21.47
2018-09-03T07:16:01.441Z,20.77
2018-09-03T07:21:06.289Z,26.20
2018-09-03T07:23:35.349Z,22.33
2018-09-03T07:26:05.456Z,21.63
2018-09-03T07:28:34.703Z,20.90
2018-09-03T07:31:04.753Z,24.08
2018-09-03T07:33:33.825Z,21.20
2018-09-03T07:36:02.926Z,21.07
2018-09-03T07:38:32.001Z,19.67
2018-09-03T07:41:01.035Z,21.33
2018-09-03T07:46:06.815Z,23.23
2018-09-03T07:51:11.639Z,23.70
2018-09-03T07:53:40.646Z,23.60
2018-09-03T07:56:10.651Z,20.20
2018-09-03T07:58:39.709Z,18.67
2018-09-03T08:01:08.882Z,17.80
2018-09-03T08:03:39.889Z,18.33
2018-09-03T08:06:08.958Z,18.30
2018-09-03T08:08:38.018Z,16.87
2018-09-03T08:13:42.901Z,21.40
2018-09-03T08:16:11.945Z,21.80
2018-09-03T08:18:41.023Z,18.33
2018-09-03T08:21:10.074Z,18.13
2018-09-03T08:28:51.285Z,21.80
2018-09-03T08:31:21.301Z,20.90
2018-09-03T08:33:50.366Z,20.70
2018-09-03T08:36:19.433Z,18.30
2018-09-03T08:38:50.510Z,16.80
2018-09-03T08:41:19.606Z,19.30
2018-09-03T08:46:24.389Z,16.30
2018-09-03T08:51:29.262Z,18.20
2018-09-03T08:53:58.337Z,17.75
2018-09-03T08:56:27.403Z,14.93
2018-09-03T08:58:56.454Z,15.30
2018-09-03T09:01:25.522Z,14.40
2018-09-03T09:03:57.903Z,14.50
2018-09-03T09:06:28.954Z,15.00
2018-09-03T09:08:58.023Z,15.10
2018-09-03T09:11:27.295Z,14.13
2018-09-03T09:13:56.350Z,14.43
2018-09-03T09:16:27.393Z,16.40
2018-09-03T09:18:57.510Z,13.00
2018-09-03T09:21:26.556Z,13.17
2018-09-03T09:23:55.661Z,12.77
2018-09-03T09:26:24.699Z,11.23
2018-09-03T09:28:55.309Z,10.90
2018-09-03T09:31:24.433Z,11.00
2018-09-03T09:33:53.512Z,8.97
2018-09-03T09:36:22.558Z,7.33
2018-09-03T09:38:51.725Z,8.80
2018-09-03T09:41:20.816Z,9.17
2018-09-03T09:43:49.833Z,8.10
2018-09-03T09:46:18.897Z,7.40
2018-09-03T09:48:49.901Z,6.80
2018-09-03T09:51:21.033Z,6.60
2018-09-03T09:53:50.209Z,6.37
2018-09-03T09:56:19.257Z,7.70
2018-09-03T09:58:48.311Z,6.60
2018-09-03T10:01:17.473Z,6.40
2018-09-03T10:03:46.533Z,7.23
2018-09-03T10:06:19.161Z,7.67
2018-09-03T10:11:23.991Z,7.87
2018-09-03T10:13:53.059Z,6.90
2018-09-03T10:16:23.066Z,6.50
2018-09-03T10:21:28.954Z,5.60
2018-09-03T10:26:33.718Z,6.10
2018-09-03T10:29:02.775Z,6.27
2018-09-03T10:34:07.664Z,3.80
2018-09-03T10:36:37.948Z,4.00
2018-09-03T10:39:06.986Z,3.77
2018-09-03T10:41:36.020Z,4.00
2018-09-03T10:46:40.853Z,3.62
2018-09-03T10:49:09.952Z,4.03
2018-09-03T10:51:39.145Z,5.00
2018-09-03T10:54:08.210Z,2.73
2018-09-03T10:59:13.118Z,3.83
2018-09-03T11:01:42.161Z,3.40
2018-09-03T11:04:12.194Z,4.15
2018-09-03T11:06:41.288Z,3.73
2018-09-03T11:11:47.113Z,4.00
2018-09-03T11:14:17.278Z,3.20
2018-09-03T11:16:46.285Z,3.90
2018-09-03T11:21:51.173Z,3.33
2018-09-03T11:24:20.225Z,4.60
2018-09-03T11:26:49.277Z,4.70
2018-09-03T11:29:19.250Z,4.17
2018-09-03T11:31:49.290Z,4.03
2018-09-03T11:34:18.337Z,4.17
2018-09-03T11:36:47.398Z,4.43
2018-09-03T11:39:16.442Z,4.47
2018-09-03T11:44:22.257Z,4.18
2018-09-03T11:49:27.135Z,4.45
2018-09-03T11:51:56.210Z,4.60
2018-09-03T11:57:01.080Z,4.50
2018-09-03T11:59:30.189Z,4.15
2018-09-03T12:01:59.351Z,4.10
2018-09-03T12:07:04.282Z,4.40
2018-09-03T12:09:33.334Z,3.83
2018-09-03T12:12:02.407Z,4.40
2018-09-03T12:14:31.453Z,4.30
2018-09-03T12:17:00.497Z,4.63
2018-09-03T12:19:30.622Z,3.87
2018-09-03T12:24:35.394Z,3.55
2018-09-03T12:29:40.312Z,4.55
2018-09-03T12:34:45.149Z,5.53
2018-09-03T12:37:14.220Z,4.73
2018-09-03T12:39:45.200Z,5.70
2018-09-03T12:42:14.229Z,5.40
2018-09-03T12:47:19.013Z,5.10
2018-09-03T12:49:48.994Z,4.00
2018-09-03T12:52:18.144Z,4.30
2018-09-03T12:54:47.233Z,4.57
2018-09-03T12:57:16.272Z,4.33
2018-09-03T13:02:21.052Z,4.55
2018-09-03T13:07:25.941Z,3.53
2018-09-03T13:09:55.076Z,4.03
2018-09-03T13:12:24.135Z,3.53
2018-09-03T13:14:53.353Z,3.90
2018-09-03T13:17:22.392Z,3.20
2018-09-03T13:22:28.093Z,4.00
2018-09-03T13:24:57.164Z,4.20
2018-09-03T13:27:26.209Z,3.83
2018-09-03T13:29:55.265Z,3.60
2018-09-03T13:32:24.320Z,3.67
2018-09-03T13:34:53.374Z,3.87
2018-09-03T13:37:22.440Z,3.90
2018-09-03T13:39:51.513Z,3.10
2018-09-03T13:42:20.623Z,3.30
2018-09-03T13:44:49.621Z,3.75
2018-09-03T13:49:54.454Z,3.87
2018-09-03T13:52:23.509Z,4.03
2018-09-03T14:00:04.665Z,4.07
2018-09-03T14:02:33.718Z,3.43
2018-09-03T14:07:39.186Z,3.53
2018-09-03T14:12:44.119Z,3.45
2018-09-03T14:15:13.236Z,3.90
2018-09-03T14:17:42.293Z,3.50
2018-09-03T14:20:11.353Z,2.80
2018-09-03T14:22:40.421Z,3.40
2018-09-03T14:25:09.527Z,3.72
2018-09-03T14:27:38.508Z,3.73
2018-09-03T14:32:43.421Z,4.12
2018-09-03T14:35:12.477Z,3.57
2018-09-03T14:37:41.520Z,3.70
2018-09-03T14:40:10.585Z,4.37
2018-09-03T14:42:39.789Z,4.17
2018-09-03T14:45:10.200Z,4.43
2018-09-03T14:47:44.145Z,4.00
2018-09-03T14:50:13.207Z,4.40
2018-09-03T14:52:42.249Z,4.57
2018-09-03T14:55:11.349Z,4.27
2018-09-03T14:57:40.400Z,4.50
2018-09-03T15:00:09.453Z,4.40
2018-09-03T15:02:38.549Z,4.90
2018-09-03T15:05:07.609Z,4.83
2018-09-03T15:07:36.703Z,5.77
2018-09-03T15:12:41.482Z,6.03
2018-09-03T15:15:10.533Z,5.40
2018-09-03T15:17:40.587Z,5.33
2018-09-03T15:22:47.486Z,5.62
2018-09-03T15:27:52.348Z,6.30
2018-09-03T15:30:22.341Z,5.60
2018-09-03T15:32:51.392Z,4.93
2018-09-03T15:35:20.596Z,4.37
2018-09-03T15:37:49.646Z,6.40
2018-09-03T15:40:18.693Z,5.90
2018-09-03T15:42:47.806Z,6.33
2018-09-03T15:45:16.794Z,6.87
2018-09-03T15:47:45.873Z,6.37
2018-09-03T15:50:14.893Z,6.33
2018-09-03T15:52:43.933Z,6.20
2018-09-03T15:55:13.002Z,5.73
2018-09-03T15:57:42.061Z,5.53
2018-09-03T16:00:11.142Z,6.00
2018-09-03T16:02:40.184Z,5.57
2018-09-03T16:05:10.200Z,5.17
2018-09-03T16:07:41.210Z,5.60
2018-09-03T16:10:10.362Z,5.70
2018-09-03T16:12:40.486Z,5.90
2018-09-03T16:15:09.542Z,5.87
2018-09-03T16:20:14.607Z,5.80
2018-09-03T16:22:43.657Z,5.90
2018-09-03T16:27:48.585Z,6.50
2018-09-03T16:30:18.077Z,7.60
2018-09-03T16:35:22.906Z,5.82
2018-09-03T16:40:27.756Z,6.70
2018-09-03T16:42:57.753Z,5.80
2018-09-03T16:45:26.794Z,5.60
2018-09-03T16:47:55.848Z,6.10
2018-09-03T16:50:24.901Z,5.77
2018-09-03T16:52:53.960Z,5.50
2018-09-03T16:55:28.180Z,6.37
2018-09-03T16:57:57.228Z,6.40
2018-09-03T17:00:28.168Z,6.30
2018-09-03T17:02:57.238Z,5.70
2018-09-03T17:05:27.240Z,6.07
2018-09-03T17:07:56.375Z,6.23
2018-09-03T17:10:25.606Z,7.00
2018-09-03T17:12:56.610Z,6.90
2018-09-03T17:15:27.627Z,7.10
2018-09-03T17:17:56.706Z,6.50
2018-09-03T17:23:01.508Z,7.62
2018-09-03T17:25:30.553Z,6.62
2018-09-03T17:28:00.621Z,6.80
2018-09-03T17:30:29.692Z,7.17
2018-09-03T17:32:58.733Z,5.90
2018-09-03T17:35:27.776Z,5.93
2018-09-03T17:37:59.869Z,6.40
2018-09-03T17:40:28.916Z,5.17
2018-09-03T17:42:58.982Z,6.03
2018-09-03T17:45:28.034Z,6.47
2018-09-03T17:47:57.093Z,5.43
2018-09-03T17:50:26.150Z,7.20
2018-09-03T17:52:55.216Z,6.50
2018-09-03T17:55:24.299Z,8.38
2018-09-03T18:00:29.162Z,7.53
2018-09-03T18:02:58.237Z,9.48
2018-09-03T18:05:29.277Z,7.73
2018-09-03T18:07:58.318Z,7.43
2018-09-03T18:10:28.319Z,6.90
2018-09-03T18:12:57.365Z,6.63
2018-09-03T18:15:26.412Z,6.03
2018-09-03T18:17:55.478Z,7.30
2018-09-03T18:20:24.661Z,6.60
2018-09-03T18:22:53.737Z,7.43
2018-09-03T18:27:58.570Z,7.60
2018-09-03T18:30:27.727Z,6.43
2018-09-03T18:33:00.785Z,6.13
2018-09-03T18:35:30.137Z,7.57
2018-09-03T18:37:59.225Z,6.83
2018-09-03T18:40:28.254Z,6.37
2018-09-03T18:42:57.318Z,8.00
2018-09-03T18:48:02.119Z,8.93
2018-09-03T18:50:31.223Z,9.32
2018-09-03T18:53:00.401Z,7.80
2018-09-03T18:58:05.290Z,8.20
2018-09-03T19:00:34.354Z,9.35
2018-09-03T19:05:39.281Z,10.35
2018-09-03T19:08:08.361Z,10.20
2018-09-03T19:10:37.405Z,9.17
2018-09-03T19:15:43.270Z,10.35
2018-09-03T19:18:12.329Z,9.20
2018-09-03T19:20:41.387Z,10.17
2018-09-03T19:25:46.227Z,10.80
2018-09-03T19:28:17.317Z,10.13
2018-09-03T19:30:47.275Z,9.17
2018-09-03T19:33:16.349Z,10.00
2018-09-03T19:35:45.417Z,11.63
2018-09-03T19:38:14.490Z,11.80
2018-09-03T19:40:43.542Z,13.53
2018-09-03T19:43:12.595Z,12.67
2018-09-03T19:48:17.455Z,13.70
2018-09-03T19:50:46.561Z,14.00
2018-09-03T19:53:15.632Z,11.00
2018-09-03T19:55:44.780Z,10.80
2018-09-03T19:58:13.812Z,12.03
2018-09-03T20:00:46.407Z,15.17
2018-09-03T20:03:15.482Z,14.00
2018-09-03T20:08:20.324Z,18.10
2018-09-03T20:13:34.849Z,20.17
2018-09-03T20:16:04.171Z,16.60
2018-09-03T20:18:33.324Z,16.70
2018-09-03T20:23:38.401Z,17.42
2018-09-03T20:26:07.502Z,18.23
2018-09-03T20:28:37.693Z,16.00
2018-09-03T20:31:06.708Z,16.00
2018-09-03T20:33:36.790Z,15.13
2018-09-03T20:36:05.862Z,14.70
2018-09-03T20:38:34.934Z,18.13
2018-09-03T20:41:04.023Z,14.17
2018-09-03T20:46:10.466Z,17.50
2018-09-03T20:48:42.769Z,17.90
2018-09-03T20:51:12.285Z,17.65
2018-09-03T20:53:43.996Z,12.83
2018-09-03T20:56:14.672Z,13.90
2018-09-03T21:01:20.445Z,16.33
2018-09-03T21:06:28.863Z,17.10
2018-09-03T21:08:59.945Z,17.17
2018-09-03T21:11:30.712Z,18.42
2018-09-03T21:14:01.564Z,16.33
2018-09-03T21:16:32.187Z,14.27
2018-09-03T21:19:02.046Z,14.50
2018-09-03T21:26:47.229Z,17.50
2018-09-03T21:29:20.661Z,17.70
2018-09-03T21:31:54.155Z,14.97
2018-09-03T21:34:28.018Z,13.90
2018-09-03T21:39:35.294Z,17.13
2018-09-03T21:44:40.074Z,18.05
2018-09-03T21:47:09.202Z,19.95
2018-09-03T21:49:38.283Z,17.10
2018-09-03T21:52:07.394Z,19.70
2018-09-03T21:54:36.512Z,19.00
2018-09-03T21:57:05.600Z,16.20
2018-09-03T21:59:34.682Z,18.67
2018-09-03T22:02:03.805Z,19.63
2018-09-03T22:04:40.316Z,16.13
2018-09-03T22:07:10.335Z,16.33
2018-09-03T22:09:39.397Z,14.40
2018-09-03T22:12:08.461Z,13.83
2018-09-03T22:14:37.534Z,14.93
2018-09-03T22:17:06.603Z,15.23
2018-09-03T22:19:35.671Z,13.43
2018-09-03T22:22:04.726Z,16.20
2018-09-03T22:24:33.792Z,16.00
2018-09-03T22:27:03.036Z,13.83
2018-09-03T22:29:32.094Z,15.20
2018-09-03T22:32:01.518Z,16.60
2018-09-03T22:34:31.567Z,17.85
2018-09-03T22:37:00.674Z,16.40
2018-09-03T22:39:29.752Z,15.43
2018-09-03T22:41:59.816Z,16.70
2018-09-03T22:44:28.890Z,16.53
2018-09-03T22:46:57.952Z,14.57
2018-09-03T22:49:27.038Z,15.60
2018-09-03T22:51:57.134Z,16.10
2018-09-03T22:54:26.250Z,19.73
2018-09-03T22:57:00.808Z,17.40
2018-09-03T22:59:30.340Z,16.80
2018-09-03T23:01:59.406Z,17.70
2018-09-03T23:04:30.487Z,17.00
2018-09-03T23:07:00.501Z,15.20
2018-09-03T23:09:29.596Z,15.90
2018-09-03T23:11:58.664Z,16.47
2018-09-03T23:14:27.726Z,16.83
2018-09-03T23:16:56.798Z,16.87
2018-09-03T23:19:26.809Z,17.43
2018-09-03T23:21:57.791Z,16.90
2018-09-03T23:24:26.861Z,16.67
2018-09-03T23:26:55.999Z,16.93
2018-09-03T23:29:25.073Z,16.50
2018-09-03T23:31:54.153Z,17.23
2018-09-03T23:34:24.180Z,16.70
2018-09-03T23:36:53.229Z,16.70
2018-09-03T23:39:22.342Z,16.47
2018-09-03T23:41:52.418Z,22.13
2018-09-03T23:44:21.485Z,23.00
2018-09-03T23:49:26.284Z,22.10
2018-09-03T23:51:55.375Z,22.77
2018-09-03T23:54:24.441Z,24.00
2018-09-03T23:56:54.474Z,20.40
2018-09-03T23:59:23.667Z,19.20
